Time;durP1;ratioP1;P1;durP2;ratioP2;P2;SDS_P1;SDS_P2;PMS_P1;PMS_P2;Temp;Humidity;BMP_temperature;BMP_pressure;BME280_temperature;BME280_humidity;BME280_pressure;Samples;Min_cycle;Max_cycle;Signal;HPM_P1;HPM_P2
2022/12/20 00:00:50;;;;;;;8.80;5.63;;;;;;;7.36;100.00;101112.16;2047140;28;20098;-67
2022/12/20 00:01:52;;;;;;;9.18;4.47;;;;;;;7.39;100.00;101121.91;2047263;28;35851;-68
2022/12/20 00:02:54;;;;;;;7.45;4.72;;;;;;;7.39;100.00;101113.91;2046818;28;34670;-67
2022/12/20 00:03:58;;;;;;;6.15;5.00;;;;;;;7.44;100.00;101109.44;2045978;28;41084;-67
2022/12/20 00:05:00;;;;;;;10.18;5.18;;;;;;;7.44;100.00;101114.75;2038009;29;40217;-67
2022/12/20 00:06:02;;;;;;;9.07;5.00;;;;;;;7.45;100.00;101111.22;2039039;28;33341;-67
2022/12/20 00:07:04;;;;;;;7.20;4.70;;;;;;;7.43;100.00;101108.56;2046678;28;37167;-67
2022/12/20 00:08:07;;;;;;;8.85;5.30;;;;;;;7.44;100.00;101104.09;2047795;28;20047;-67
2022/12/20 00:09:10;;;;;;;7.80;4.95;;;;;;;7.45;100.00;101106.75;2046639;28;41777;-67
2022/12/20 00:10:12;;;;;;;6.18;4.80;;;;;;;7.48;100.00;101099.63;2047109;28;32067;-67
2022/12/20 00:11:16;;;;;;;6.40;5.07;;;;;;;7.47;100.00;101103.22;2046664;28;37131;-67
2022/12/20 00:12:18;;;;;;;5.18;4.57;;;;;;;7.49;100.00;101107.63;2047183;28;40525;-66
2022/12/20 00:13:25;;;;;;;10.30;5.25;;;;;;;7.50;100.00;101106.75;2047186;28;20227;-66
2022/12/20 00:14:27;;;;;;;8.63;5.07;;;;;;;7.49;100.00;101112.94;2046618;28;43480;-66
2022/12/20 00:15:30;;;;;;;6.53;4.72;;;;;;;7.51;100.00;101100.50;2046779;28;38852;-67
2022/12/20 00:16:32;;;;;;;9.80;5.10;;;;;;;7.54;100.00;101105.81;2046676;28;36819;-66
2022/12/20 00:17:33;;;;;;;8.25;5.13;;;;;;;7.57;100.00;101108.47;2046725;28;40475;-66
2022/12/20 00:18:37;;;;;;;6.90;4.68;;;;;;;7.56;100.00;101090.69;2046614;28;38800;-66
2022/12/20 00:19:38;;;;;;;7.28;4.57;;;;;;;7.61;100.00;101102.19;2046304;28;37912;-66
2022/12/20 00:20:42;;;;;;;6.53;4.70;;;;;;;7.62;100.00;101103.94;2046460;28;39531;-67
2022/12/20 00:21:44;;;;;;;6.07;4.90;;;;;;;7.64;100.00;101099.53;2047631;28;20506;-66
2022/12/20 00:22:47;;;;;;;6.53;4.78;;;;;;;7.66;100.00;101107.47;2049037;28;20040;-66
2022/12/20 00:23:51;;;;;;;9.48;5.05;;;;;;;7.64;100.00;101104.84;2048019;28;39638;-66
2022/12/20 00:24:52;;;;;;;7.22;4.40;;;;;;;7.63;100.00;101105.72;2047861;28;38961;-66
2022/12/20 00:26:17;;;;;;;5.07;4.43;;;;;;;7.63;100.00;101103.06;2039749;28;40399;-66
2022/12/20 00:27:19;;;;;;;6.72;4.20;;;;;;;7.67;100.00;101100.38;2040336;29;20056;-67
2022/12/20 00:28:20;;;;;;;6.03;4.50;;;;;;;7.65;100.00;101103.94;2039677;28;35689;-64
2022/12/20 00:29:22;;;;;;;8.68;5.00;;;;;;;7.61;100.00;101107.53;2047976;28;27079;-66
2022/12/20 00:30:24;;;;;;;6.35;3.97;;;;;;;7.64;100.00;101096.84;2047645;28;30864;-66
2022/12/20 00:31:28;;;;;;;7.20;4.90;;;;;;;7.64;100.00;101102.19;2048590;28;31418;-66
2022/12/20 00:32:30;;;;;;;7.40;4.40;;;;;;;7.64;100.00;101102.19;2039642;29;31996;-67
2022/12/20 00:33:36;;;;;;;5.15;4.55;;;;;;;7.64;100.00;101099.53;2039123;28;37365;-66
2022/12/20 00:34:37;;;;;;;6.30;4.65;;;;;;;7.65;100.00;101095.94;2047658;28;25669;-66
2022/12/20 00:35:42;;;;;;;7.57;4.85;;;;;;;7.64;100.00;101095.94;2047473;28;30890;-67
2022/12/20 00:36:43;;;;;;;8.75;4.63;;;;;;;7.62;100.00;101090.63;2047524;28;34462;-66
2022/12/20 00:37:45;;;;;;;7.28;4.78;;;;;;;7.64;100.00;101096.84;2048877;28;20040;-66
2022/12/20 00:38:50;;;;;;;8.43;4.20;;;;;;;7.63;100.00;101086.19;2047111;28;39935;-66
2022/12/20 00:39:51;;;;;;;5.95;4.30;;;;;;;7.61;100.00;101086.22;2047413;28;34165;-67
2022/12/20 00:41:03;;;;;;;7.70;4.15;;;;;;;7.59;100.00;101088.00;2048286;28;27996;-67
2022/12/20 00:42:05;;;;;;;6.75;4.53;;;;;;;7.60;100.00;101088.88;2047559;28;30541;-66
2022/12/20 00:43:06;;;;;;;5.85;4.35;;;;;;;7.60;100.00;101084.44;2047826;28;20047;-66
2022/12/20 00:44:08;;;;;;;6.68;4.40;;;;;;;7.60;100.00;101083.56;2048888;28;20802;-66
2022/12/20 00:45:10;;;;;;;7.03;4.97;;;;;;;7.57;100.00;101087.16;2048886;28;20177;-66
2022/12/20 00:46:15;;;;;;;8.45;4.40;;;;;;;7.58;100.00;101088.91;2047757;28;37795;-66
2022/12/20 00:47:16;;;;;;;7.00;4.72;;;;;;;7.58;100.00;101080.91;2047779;28;32739;-66
2022/12/20 00:48:18;;;;;;;8.45;4.72;;;;;;;7.59;100.00;101092.44;2048860;28;20110;-66
2022/12/20 00:49:20;;;;;;;6.93;4.50;;;;;;;7.59;100.00;101088.00;2045318;28;20052;-66
2022/12/20 00:50:23;;;;;;;6.90;4.53;;;;;;;7.59;100.00;101088.00;2040101;28;21122;-68
2022/12/20 00:51:28;;;;;;;7.07;4.32;;;;;;;7.57;100.00;101083.56;2039304;29;26015;-67
2022/12/20 00:52:30;;;;;;;7.18;4.38;;;;;;;7.56;100.00;101089.81;2039932;28;40743;-67
2022/12/20 00:53:35;;;;;;;5.40;4.03;;;;;;;7.57;100.00;101095.13;2040285;29;40780;-67
2022/12/20 00:54:36;;;;;;;8.80;4.75;;;;;;;7.56;100.00;101087.16;2047801;28;26878;-67
2022/12/20 00:55:43;;;;;;;6.60;4.50;;;;;;;7.56;100.00;101082.69;2046654;28;30795;-67
2022/12/20 00:56:45;;;;;;;7.10;4.25;;;;;;;7.57;100.00;101095.13;2040434;28;34592;-67
2022/12/20 00:57:47;;;;;;;4.55;3.83;;;;;;;7.58;100.00;101088.03;2048771;28;20933;-67
2022/12/20 00:58:49;;;;;;;9.10;4.80;;;;;;;7.60;100.00;101088.88;2048993;28;20052;-67
2022/12/20 00:59:51;;;;;;;5.55;4.60;;;;;;;7.58;100.00;101091.56;2048238;28;30588;-67
2022/12/20 01:00:54;;;;;;;7.60;4.78;;;;;;;7.60;100.00;101083.56;2048843;28;20134;-68
2022/12/20 01:01:57;;;;;;;7.78;4.32;;;;;;;7.60;100.00;101086.22;2039401;29;21616;-68
2022/12/20 01:02:59;;;;;;;9.30;4.45;;;;;;;7.59;100.00;101088.00;2032166;29;20041;-68
2022/12/20 01:04:03;;;;;;;7.03;4.55;;;;;;;7.58;100.00;101090.69;2047918;28;20174;-67
2022/12/20 01:05:05;;;;;;;5.90;4.05;;;;;;;7.58;100.00;101086.22;2055234;28;29458;-68
2022/12/20 01:06:07;;;;;;;7.60;4.65;;;;;;;7.59;100.00;101082.69;2047828;28;35301;-67
2022/12/20 01:07:10;;;;;;;8.90;5.10;;;;;;;7.60;100.00;101083.56;2048084;28;35835;-68
2022/12/20 01:08:11;;;;;;;6.57;4.55;;;;;;;7.61;100.00;101080.88;2047514;28;20928;-67
2022/12/20 01:09:13;;;;;;;6.93;4.25;;;;;;;7.62;100.00;101071.97;2047923;28;31487;-68
2022/12/20 01:10:17;;;;;;;6.43;4.00;;;;;;;7.61;100.00;101075.56;2047968;28;27355;-67
2022/12/20 01:11:23;;;;;;;10.82;4.70;;;;;;;7.64;100.00;101075.53;2040068;29;20819;-68
2022/12/20 01:12:27;;;;;;;7.70;4.10;;;;;;;7.67;100.00;101081.72;2049145;28;20039;-67
2022/12/20 01:13:30;;;;;;;7.78;4.70;;;;;;;7.67;100.00;101068.41;2054125;28;41929;-68
2022/12/20 01:14:34;;;;;;;9.68;4.35;;;;;;;7.67;100.00;101085.28;2039478;28;26433;-67
2022/12/20 01:15:35;;;;;;;7.03;4.53;;;;;;;7.64;100.00;101088.84;2040060;28;36085;-67
2022/12/20 01:16:44;;;;;;;6.13;4.53;;;;;;;7.66;100.00;101088.81;2039318;29;32236;-66
2022/12/20 01:17:48;;;;;;;6.93;4.82;;;;;;;7.67;100.00;101087.06;2033391;29;20191;-67
2022/12/20 01:18:51;;;;;;;4.55;4.10;;;;;;;7.67;100.00;101090.59;2039407;28;29739;-67
2022/12/20 01:19:53;;;;;;;8.57;4.60;;;;;;;7.70;100.00;101089.69;2040156;28;20499;-68
2022/12/20 01:21:04;;;;;;;6.63;4.28;;;;;;;7.71;100.00;101086.13;2039341;28;40111;-68
2022/12/20 01:22:05;;;;;;;5.20;4.10;;;;;;;7.69;100.00;101094.13;2039304;29;30677;-68
2022/12/20 01:23:07;;;;;;;9.63;4.50;;;;;;;7.70;100.00;101092.34;2031825;29;23745;-67
2022/12/20 01:24:18;;;;;;;7.60;4.15;;;;;;;7.72;100.00;101091.44;2039253;28;39526;-68
2022/12/20 01:25:21;;;;;;;5.75;4.28;;;;;;;7.72;100.00;101087.91;2040121;28;20052;-68
2022/12/20 01:26:26;;;;;;;7.78;4.57;;;;;;;7.74;100.00;101091.44;2039337;28;34066;-68
2022/12/20 01:27:28;;;;;;;7.55;4.35;;;;;;;7.75;100.00;101086.09;2048098;28;33685;-68
2022/12/20 01:28:31;;;;;;;7.50;4.30;;;;;;;7.80;100.00;101086.03;2047631;28;28418;-68
2022/12/20 01:29:34;;;;;;;5.50;3.90;;;;;;;7.78;100.00;101086.06;2048430;28;24334;-68
2022/12/20 01:30:40;;;;;;;7.43;4.20;;;;;;;7.81;100.00;101079.81;2039379;29;20822;-68
2022/12/20 01:31:42;;;;;;;6.43;4.15;;;;;;;7.81;100.00;101086.03;2039757;28;31946;-67
2022/12/20 01:32:44;;;;;;;5.53;4.05;;;;;;;7.80;100.00;101083.38;2047334;28;39447;-67
2022/12/20 01:33:48;;;;;;;6.97;4.38;;;;;;;7.81;100.00;101086.03;2047624;28;20047;-68
2022/12/20 01:34:53;;;;;;;7.57;4.35;;;;;;;7.82;100.00;101085.16;2047598;28;28943;-68
2022/12/20 01:36:03;;;;;;;7.20;4.43;;;;;;;7.83;100.00;101075.34;2047881;28;38202;-68
2022/12/20 01:37:05;;;;;;;8.65;4.28;;;;;;;7.82;100.00;101078.91;2048114;28;25588;-68
2022/12/20 01:38:06;;;;;;;5.30;4.28;;;;;;;7.81;100.00;101077.16;2048044;28;34687;-68
2022/12/20 01:39:13;;;;;;;6.47;4.28;;;;;;;7.81;100.00;101077.16;2040019;29;20969;-68
2022/12/20 01:40:15;;;;;;;5.97;4.07;;;;;;;7.79;100.00;101079.84;2040291;28;32744;-68
2022/12/20 01:41:20;;;;;;;8.15;4.20;;;;;;;7.80;100.00;101083.38;2047609;28;27060;-68
2022/12/20 01:42:22;;;;;;;7.82;4.25;;;;;;;7.81;100.00;101075.38;2039435;29;26350;-67
2022/12/20 01:43:45;;;;;;;6.28;4.20;;;;;;;7.81;100.00;101082.50;2039726;28;20044;-68
2022/12/20 01:44:56;;;;;;;6.53;4.07;;;;;;;7.79;100.00;101073.63;2039238;29;21217;-68
2022/12/20 01:45:58;;;;;;;8.98;4.65;;;;;;;7.80;100.00;101075.38;2035731;29;27114;-68
2022/12/20 01:46:59;;;;;;;6.65;4.53;;;;;;;7.78;100.00;101072.72;2039938;28;37649;-67
2022/12/20 01:48:01;;;;;;;8.02;4.40;;;;;;;7.77;100.00;101070.06;2031431;29;26080;-67
2022/12/20 01:49:25;;;;;;;7.07;4.05;;;;;;;7.77;100.00;101070.06;2045835;28;35845;-66
2022/12/20 01:50:27;;;;;;;6.53;4.38;;;;;;;7.78;100.00;101069.19;2060672;28;32940;-68
2022/12/20 01:51:38;;;;;;;7.47;4.70;;;;;;;7.75;100.00;101071.88;2056301;28;20036;-67
2022/12/20 01:52:43;;;;;;;6.07;4.43;;;;;;;7.76;100.00;101068.31;2047582;28;20056;-68
2022/12/20 01:53:55;;;;;;;7.50;4.45;;;;;;;7.75;100.00;101077.19;2040365;28;21014;-67
2022/12/20 01:55:25;;;;;;;6.47;4.55;;;;;;;7.73;100.00;101074.53;2040912;28;35807;-68
2022/12/20 01:56:27;;;;;;;6.85;4.20;;;;;;;7.73;100.00;101079.88;2041924;28;33323;-68
2022/12/20 01:57:50;;;;;;;6.85;4.50;;;;;;;7.73;100.00;101077.22;2047590;28;20114;-68
2022/12/20 01:58:56;;;;;;;6.68;4.13;;;;;;;7.73;100.00;101069.22;2050626;28;20163;-68
2022/12/20 01:59:58;;;;;;;7.20;4.57;;;;;;;7.75;100.00;101066.53;2047140;28;31266;-68
2022/12/20 02:01:00;;;;;;;7.57;4.25;;;;;;;7.77;100.00;101062.97;2047552;28;20848;-67
2022/12/20 02:02:09;;;;;;;6.35;3.53;;;;;;;7.77;100.00;101060.31;2055821;28;20897;-68
2022/12/20 02:03:13;;;;;;;5.72;4.38;;;;;;;7.78;100.00;101066.53;2054785;28;41984;-68
2022/12/20 02:04:17;;;;;;;7.90;4.30;;;;;;;7.77;100.00;101065.66;2047177;28;27852;-68
2022/12/20 02:05:22;;;;;;;4.82;4.10;;;;;;;7.79;100.00;101060.31;2047917;28;23077;-68
2022/12/20 02:06:26;;;;;;;8.93;4.15;;;;;;;7.79;100.00;101065.63;2047006;28;31984;-68
2022/12/20 02:07:32;;;;;;;8.43;4.35;;;;;;;7.79;100.00;101058.50;2048021;28;32497;-67
2022/12/20 02:08:33;;;;;;;7.45;4.25;;;;;;;7.78;100.00;101053.19;2047144;28;40541;-68
2022/12/20 02:09:37;;;;;;;10.68;4.38;;;;;;;7.78;100.00;101051.41;2046873;28;35861;-67
2022/12/20 02:10:50;;;;;;;6.63;4.43;;;;;;;7.78;100.00;101055.84;2047330;28;26190;-68
2022/12/20 02:12:07;;;;;;;7.05;4.38;;;;;;;7.78;100.00;101048.72;2045586;28;37135;-68
2022/12/20 02:13:24;;;;;;;7.82;4.63;;;;;;;7.77;100.00;101049.66;2034777;29;20048;-67
2022/12/20 02:14:49;;;;;;;6.28;4.60;;;;;;;7.76;100.00;101042.53;2033067;29;29052;-67
2022/12/20 02:15:57;;;;;;;7.40;4.55;;;;;;;7.75;100.00;101045.22;2036256;29;20834;-68
2022/12/20 02:17:26;;;;;;;5.97;4.43;;;;;;;7.75;100.00;101050.53;2034218;29;22626;-67
2022/12/20 02:18:49;;;;;;;5.28;4.25;;;;;;;7.75;100.00;101050.53;2034838;29;24502;-68
2022/12/20 02:20:24;;;;;;;5.85;4.45;;;;;;;7.72;100.00;101056.81;2029329;29;38012;-67
2022/12/20 02:21:41;;;;;;;7.93;4.75;;;;;;;7.68;100.00;101052.41;2042476;28;32381;-68
2022/12/20 02:23:16;;;;;;;8.95;4.68;;;;;;;7.68;100.00;101055.06;2038985;29;34201;-67
2022/12/20 02:25:19;;;;;;;7.63;4.80;;;;;;;7.67;100.00;101052.41;2045883;28;20040;-67
2022/12/20 02:27:19;;;;;;;8.50;4.75;;;;;;;7.68;100.00;101054.16;2007540;29;27281;-67
2022/12/20 02:29:18;;;;;;;8.38;4.55;;;;;;;7.67;100.00;101052.41;2031634;28;20048;-67
2022/12/20 02:30:26;;;;;;;6.63;4.03;;;;;;;7.67;100.00;101055.09;2039201;29;26989;-67
2022/12/20 02:31:41;;;;;;;6.95;4.47;;;;;;;7.67;100.00;101052.41;2040838;28;20044;-67
2022/12/20 02:32:52;;;;;;;6.45;4.78;;;;;;;7.67;100.00;101049.75;2045537;28;20040;-68
2022/12/20 02:33:56;;;;;;;;;;;;;;;7.68;100.00;101046.16;2031660;29;37019;-67
2022/12/20 02:34:58;;;;;;;6.10;4.75;;;;;;;7.70;100.00;101047.03;2032306;28;26100;-67
2022/12/20 02:36:03;;;;;;;8.07;5.10;;;;;;;7.70;100.00;101049.69;2048306;28;20933;-67
2022/12/20 02:37:05;;;;;;;6.50;4.65;;;;;;;7.68;100.00;101044.41;2039319;29;20036;-67
2022/12/20 02:38:32;;;;;;;7.47;4.65;;;;;;;7.69;100.00;101038.16;2031962;29;20044;-67
2022/12/20 02:39:37;;;;;;;6.60;4.60;;;;;;;7.69;100.00;101045.28;2042706;28;20115;-67
2022/12/20 02:40:43;;;;;;;5.78;4.32;;;;;;;7.73;100.00;101044.34;2055445;28;20047;-68
2022/12/20 02:41:52;;;;;;;7.38;4.97;;;;;;;7.74;100.00;101027.47;2046622;28;20052;-67
2022/12/20 02:43:03;;;;;;;5.45;4.38;;;;;;;7.74;100.00;101028.34;2040160;28;35744;-68
2022/12/20 02:45:36;;;;;;;5.90;4.05;;;;;;;7.74;100.00;101031.00;2034996;29;36217;-67
2022/12/20 02:46:38;;;;;;;5.55;4.35;;;;;;;7.74;100.00;101028.34;2034414;29;38185;-68
2022/12/20 02:48:17;;;;;;;7.35;4.38;;;;;;;7.75;100.00;101021.22;2031794;29;20041;-68
2022/12/20 02:49:25;;;;;;;6.35;4.10;;;;;;;7.74;100.00;101027.47;2044074;28;34091;-67
2022/12/20 02:50:46;;;;;;;6.05;4.00;;;;;;;7.74;100.00;101027.47;2050542;28;29507;-67
2022/12/20 02:51:54;;;;;;;6.35;3.92;;;;;;;7.73;100.00;101023.03;2039154;29;22678;-68
2022/12/20 02:52:57;;;;;;;6.95;4.40;;;;;;;7.74;100.00;101011.50;2041435;28;34077;-68
2022/12/20 02:54:02;;;;;;;6.82;4.43;;;;;;;7.73;100.00;101013.25;2039216;29;20103;-67
2022/12/20 02:55:06;;;;;;;7.03;4.88;;;;;;;7.75;100.00;101011.47;2031883;29;20147;-68
2022/12/20 02:56:34;;;;;;;6.70;4.00;;;;;;;7.76;100.00;101005.22;2031878;29;20883;-68
2022/12/20 02:57:59;;;;;;;5.25;3.97;;;;;;;7.76;100.00;101020.34;2042645;28;20047;-68
2022/12/20 02:59:13;;;;;;;6.00;4.07;;;;;;;7.74;100.00;101024.81;2045770;28;20766;-68
2022/12/20 03:00:20;;;;;;;8.43;4.75;;;;;;;7.75;100.00;101023.91;2054884;28;26532;-68
2022/12/20 03:01:32;;;;;;;5.43;4.13;;;;;;;7.76;100.00;101015.00;2045757;28;20926;-68
2022/12/20 03:04:01;;;;;;;5.68;4.20;;;;;;;7.73;100.00;101010.59;2042225;28;20036;-68
2022/12/20 03:05:04;;;;;;;10.32;4.32;;;;;;;7.72;100.00;101024.81;2039350;29;28386;-67
2022/12/20 03:06:07;;;;;;;5.97;3.90;;;;;;;7.71;100.00;101020.38;2040250;28;20089;-68
2022/12/20 03:07:13;;;;;;;6.13;4.13;;;;;;;7.75;100.00;101032.78;2031593;29;20070;-67
2022/12/20 03:08:16;;;;;;;7.32;4.30;;;;;;;7.77;100.00;101023.00;2025044;29;20056;-68
2022/12/20 03:09:20;;;;;;;6.00;4.10;;;;;;;7.81;100.00;101013.19;2031536;29;20913;-68
2022/12/20 03:10:23;;;;;;;7.13;4.05;;;;;;;7.79;100.00;101007.00;2039580;28;20803;-68
2022/12/20 03:11:25;;;;;;;6.40;4.03;;;;;;;7.84;100.00;101022.03;2048059;28;20044;-68
2022/12/20 03:12:27;;;;;;;5.53;4.72;;;;;;;7.86;100.00;101015.78;2038996;29;20048;-68
2022/12/20 03:13:30;;;;;;;6.25;4.25;;;;;;;7.86;100.00;101014.03;2039377;29;20055;-67
2022/12/20 03:14:41;;;;;;;5.22;3.80;;;;;;;7.86;100.00;101005.13;2040501;28;20948;-67
2022/12/20 03:15:44;;;;;;;6.47;3.80;;;;;;;7.90;100.00;101018.41;2047485;28;20150;-68
2022/12/20 03:16:48;;;;;;;5.28;3.72;;;;;;;7.90;100.00;101013.09;2046722;28;20059;-68
2022/12/20 03:17:50;;;;;;;7.15;4.38;;;;;;;7.91;100.00;101013.97;2047315;28;20107;-67
2022/12/20 03:18:52;;;;;;;5.35;3.83;;;;;;;7.91;100.00;101004.16;2038684;29;21032;-68
2022/12/20 03:19:53;;;;;;;5.55;3.80;;;;;;;7.96;100.00;101007.69;2031513;29;24505;-66
2022/12/20 03:20:55;;;;;;;5.78;4.28;;;;;;;8.01;100.00;101013.84;2031527;29;20064;-68
2022/12/20 03:21:58;;;;;;;8.43;4.20;;;;;;;8.05;100.00;101020.03;2038522;28;34835;-68
2022/12/20 03:22:59;;;;;;;5.05;3.72;;;;;;;8.05;100.00;101017.34;2047655;28;20916;-68
2022/12/20 03:24:04;;;;;;;8.85;3.72;;;;;;;8.10;100.00;101020.00;2039311;29;20035;-66
2022/12/20 03:25:06;;;;;;;8.43;4.20;;;;;;;8.12;100.00;101015.50;2038980;29;20163;-68
2022/12/20 03:26:09;;;;;;;5.72;3.75;;;;;;;8.10;100.00;101012.00;2039937;28;20071;-66
2022/12/20 03:27:18;;;;;;;6.95;3.85;;;;;;;8.08;100.00;101006.66;2053651;28;20150;-68
2022/12/20 03:28:20;;;;;;;6.57;4.10;;;;;;;8.10;100.00;101012.84;2047269;28;20039;-68
2022/12/20 03:29:22;;;;;;;7.28;3.92;;;;;;;8.10;100.00;101012.84;2038950;28;20091;-68
2022/12/20 03:30:24;;;;;;;4.82;3.50;;;;;;;8.10;100.00;101006.66;2047363;28;20817;-68
2022/12/20 03:31:26;;;;;;;6.57;4.13;;;;;;;8.07;100.00;101014.69;2047203;28;27784;-68
2022/12/20 03:32:28;;;;;;;4.78;3.70;;;;;;;8.05;100.00;101012.03;2055862;28;20068;-68
2022/12/20 03:33:31;;;;;;;4.10;3.67;;;;;;;8.06;100.00;101013.81;2054056;28;37130;-67
2022/12/20 03:34:35;;;;;;;5.35;4.18;;;;;;;8.08;100.00;101012.00;2055265;28;20074;-68
2022/12/20 03:35:40;;;;;;;6.65;4.05;;;;;;;8.07;100.00;101001.34;2046739;28;20040;-67
2022/12/20 03:36:43;;;;;;;6.00;4.28;;;;;;;8.05;100.00;101005.81;2039138;28;20043;-68
2022/12/20 03:37:45;;;;;;;5.85;4.30;;;;;;;8.04;100.00;101007.63;2046895;28;20092;-68
2022/12/20 03:38:46;;;;;;;5.90;3.92;;;;;;;8.05;100.00;101014.69;2054878;28;20779;-68
2022/12/20 03:39:50;;;;;;;6.50;4.03;;;;;;;8.07;100.00;100998.69;2046676;28;20047;-69
2022/12/20 03:40:52;;;;;;;7.00;4.20;;;;;;;8.05;100.00;101005.81;2039342;28;28889;-68
2022/12/20 03:41:56;;;;;;;5.88;4.10;;;;;;;8.03;100.00;100998.72;2054526;28;20208;-68
2022/12/20 03:42:57;;;;;;;7.93;3.72;;;;;;;8.00;100.00;100998.75;2047181;28;20060;-68
2022/12/20 03:43:59;;;;;;;7.53;4.05;;;;;;;8.04;100.00;101004.94;2038903;28;20052;-68
2022/12/20 03:45:03;;;;;;;5.75;4.05;;;;;;;8.03;100.00;101006.72;2046605;28;27359;-69
2022/12/20 03:46:05;;;;;;;5.07;3.92;;;;;;;8.07;100.00;101002.22;2039201;28;20087;-67
2022/12/20 03:47:11;;;;;;;7.65;4.35;;;;;;;8.07;100.00;100996.88;2047199;28;20951;-68
2022/12/20 03:48:13;;;;;;;5.55;4.18;;;;;;;8.08;100.00;101000.47;2046413;28;20875;-66
2022/12/20 03:49:17;;;;;;;5.88;3.75;;;;;;;8.06;100.00;101002.22;2047466;28;20048;-67
2022/12/20 03:50:23;;;;;;;6.15;3.97;;;;;;;8.06;100.00;100999.56;2054889;28;20043;-67
2022/12/20 03:51:27;;;;;;;7.07;3.92;;;;;;;8.04;100.00;100999.63;2054655;28;33850;-67
2022/12/20 03:52:28;;;;;;;6.75;4.20;;;;;;;8.05;100.00;101001.34;2054908;28;20047;-69
2022/12/20 03:53:33;;;;;;;5.38;3.83;;;;;;;8.06;100.00;100996.91;2046448;28;20917;-69
2022/12/20 03:54:34;;;;;;;6.70;4.10;;;;;;;8.03;100.00;101001.38;2039275;28;20048;-68
2022/12/20 03:55:41;;;;;;;4.90;4.03;;;;;;;8.02;100.00;100998.72;2054735;28;20192;-68
2022/12/20 03:56:46;;;;;;;5.25;3.70;;;;;;;8.00;100.00;100996.09;2047147;28;20099;-68
2022/12/20 03:57:47;;;;;;;5.40;4.15;;;;;;;7.99;100.00;100999.66;2048311;28;28668;-68
2022/12/20 03:58:58;;;;;;;4.93;3.90;;;;;;;8.02;100.00;100996.97;2048337;28;20123;-68
2022/12/20 04:00:00;;;;;;;7.78;4.30;;;;;;;8.00;100.00;100993.44;2040089;28;20891;-68
2022/12/20 04:01:21;;;;;;;4.30;3.67;;;;;;;8.03;100.00;100993.38;2040159;28;20044;-68
2022/12/20 04:02:23;;;;;;;4.95;3.35;;;;;;;8.02;100.00;101001.38;2034390;29;20910;-68
2022/12/20 04:03:26;;;;;;;6.93;4.18;;;;;;;8.02;100.00;100994.28;2049528;28;20044;-68
2022/12/20 04:04:29;;;;;;;6.95;3.97;;;;;;;8.01;100.00;100997.84;2056148;28;20051;-68
2022/12/20 04:05:31;;;;;;;6.78;3.88;;;;;;;8.05;100.00;101000.47;2048187;28;34977;-67
2022/12/20 04:06:32;;;;;;;6.25;4.53;;;;;;;8.02;100.00;100999.63;2048221;28;20073;-68
2022/12/20 04:07:34;;;;;;;7.35;3.78;;;;;;;8.02;100.00;101001.38;2047963;28;36915;-68
2022/12/20 04:08:36;;;;;;;5.30;3.78;;;;;;;8.05;100.00;100995.16;2048038;28;20044;-68
2022/12/20 04:09:38;;;;;;;6.00;4.03;;;;;;;8.06;100.00;100995.13;2048315;28;20928;-68
2022/12/20 04:12:08;;;;;;;6.47;4.10;;;;;;;8.06;100.00;100999.56;2048349;28;20044;-66
2022/12/20 04:13:12;;;;;;;5.72;3.95;;;;;;;8.09;100.00;101000.41;2048439;28;20048;-68
2022/12/20 04:14:14;;;;;;;5.10;3.90;;;;;;;8.10;100.00;100999.53;2048260;28;20048;-68
2022/12/20 04:15:19;;;;;;;6.18;3.80;;;;;;;8.12;100.00;100997.72;2040382;28;20131;-68
2022/12/20 04:16:26;;;;;;;4.20;3.50;;;;;;;8.11;100.00;100997.72;2040845;28;20090;-69
2022/12/20 04:17:31;;;;;;;3.53;3.10;;;;;;;8.09;100.00;100996.88;2048679;28;20829;-68
2022/12/20 04:18:33;;;;;;;5.63;3.70;;;;;;;8.10;100.00;100998.66;2047947;28;20043;-68
2022/12/20 04:19:37;;;;;;;5.65;3.92;;;;;;;8.12;100.00;100996.84;2032299;29;20077;-68
2022/12/20 04:20:40;;;;;;;5.53;3.60;;;;;;;8.12;100.00;100999.50;2033779;28;20118;-68
2022/12/20 04:21:57;;;;;;;6.10;3.72;;;;;;;8.17;100.00;100995.88;2049866;28;20052;-68
2022/12/20 04:23:13;;;;;;;6.40;3.58;;;;;;;8.17;100.00;100989.69;2047922;28;20097;-68
2022/12/20 04:24:15;;;;;;;6.20;3.70;;;;;;;8.18;100.00;100986.09;2048562;28;20159;-68
2022/12/20 04:25:21;;;;;;;4.85;3.60;;;;;;;8.19;100.00;100987.88;2047940;28;20040;-68
2022/12/20 04:26:25;;;;;;;4.63;3.45;;;;;;;8.19;100.00;100990.53;2048860;28;20047;-68
2022/12/20 04:27:26;;;;;;;8.35;3.63;;;;;;;8.21;100.00;100991.41;2048008;28;20044;-68
2022/12/20 04:28:30;;;;;;;10.40;3.88;;;;;;;8.19;100.00;100994.06;2048746;28;20174;-68
2022/12/20 04:29:32;;;;;;;4.68;3.45;;;;;;;8.20;100.00;100995.84;2040389;29;20040;-69
2022/12/20 04:30:34;;;;;;;6.10;3.80;;;;;;;8.21;100.00;100986.94;2032915;28;20184;-68
2022/12/20 04:31:39;;;;;;;7.40;3.88;;;;;;;8.18;100.00;100992.34;2047744;28;20048;-69
2022/12/20 04:32:41;;;;;;;7.38;3.58;;;;;;;8.16;100.00;100982.56;2048228;28;20151;-69
2022/12/20 04:33:45;;;;;;;4.75;3.88;;;;;;;8.14;100.00;100984.38;2047635;28;20036;-68
2022/12/20 04:34:47;;;;;;;8.80;4.20;;;;;;;8.16;100.00;100979.91;2048340;28;21246;-69
2022/12/20 04:35:50;;;;;;;4.22;3.55;;;;;;;8.15;100.00;100981.69;2048000;28;20044;-69
2022/12/20 04:36:57;;;;;;;6.10;3.85;;;;;;;8.15;100.00;100975.47;2048471;28;20107;-68
2022/12/20 04:38:10;;;;;;;6.22;3.65;;;;;;;8.14;100.00;100974.56;2049763;28;20083;-69
2022/12/20 04:39:12;;;;;;;5.57;3.88;;;;;;;8.12;100.00;100972.84;2048397;28;20885;-66
2022/12/20 04:40:34;;;;;;;7.13;3.88;;;;;;;8.16;100.00;100978.09;2051156;28;20943;-68
2022/12/20 04:41:41;;;;;;;4.22;3.72;;;;;;;8.17;100.00;100985.22;2047931;28;20963;-68
2022/12/20 04:42:45;;;;;;;5.60;3.30;;;;;;;8.18;100.00;100980.75;2040311;28;20044;-68
2022/12/20 04:43:55;;;;;;;4.53;3.22;;;;;;;8.19;100.00;100980.75;2040454;28;20941;-68
2022/12/20 04:45:00;;;;;;;6.65;3.65;;;;;;;8.17;100.00;100976.34;2041665;28;20052;-68
2022/12/20 04:46:05;;;;;;;4.32;3.65;;;;;;;8.18;100.00;100973.66;2048435;28;20129;-68
2022/12/20 04:47:09;;;;;;;7.50;3.45;;;;;;;8.18;100.00;100975.41;2048037;28;20973;-68
2022/12/20 04:48:10;;;;;;;4.80;3.35;;;;;;;8.17;100.00;100979.88;2047982;28;20044;-68
2022/12/20 04:49:32;;;;;;;4.30;3.30;;;;;;;8.16;100.00;100978.09;2048027;28;20930;-68
2022/12/20 04:50:34;;;;;;;5.03;3.90;;;;;;;8.14;100.00;100968.38;2039996;28;20052;-68
2022/12/20 04:51:36;;;;;;;4.85;3.47;;;;;;;8.13;100.00;100977.25;2040799;28;20048;-68
2022/12/20 04:53:59;;;;;;;4.85;3.42;;;;;;;8.14;100.00;100968.38;2037817;28;20950;-67
2022/12/20 04:55:15;;;;;;;4.47;3.40;;;;;;;8.14;100.00;100960.38;2041809;28;20191;-68
2022/12/20 04:56:27;;;;;;;5.40;3.60;;;;;;;8.13;100.00;100966.59;2040333;28;20044;-68
2022/12/20 04:57:32;;;;;;;5.47;3.70;;;;;;;8.11;100.00;100957.72;2049869;28;20924;-68
2022/12/20 04:58:34;;;;;;;5.97;3.85;;;;;;;8.10;100.00;100950.66;2047923;28;20052;-68
2022/12/20 04:59:39;;;;;;;4.55;3.70;;;;;;;8.11;100.00;100963.97;2040400;28;20083;-68
2022/12/20 05:00:41;;;;;;;6.10;3.90;;;;;;;8.11;100.00;100963.97;2039959;28;20151;-67
2022/12/20 05:01:55;;;;;;;4.80;3.70;;;;;;;8.14;100.00;100953.25;2049640;28;20139;-67
2022/12/20 05:03:20;;;;;;;6.35;4.30;;;;;;;8.11;100.00;100955.06;2055205;28;20168;-68
2022/12/20 05:04:22;;;;;;;4.78;3.30;;;;;;;8.12;100.00;100954.19;2047947;28;20052;-68
2022/12/20 05:05:24;;;;;;;5.65;3.75;;;;;;;8.10;100.00;100966.66;2047175;28;24388;-68
2022/12/20 05:06:28;;;;;;;4.57;3.42;;;;;;;8.09;100.00;100948.88;2048479;28;20111;-68
2022/12/20 05:07:30;;;;;;;4.63;3.75;;;;;;;8.05;100.00;100942.69;2055626;28;20047;-67
2022/12/20 05:08:33;;;;;;;6.50;3.95;;;;;;;8.03;100.00;100945.38;2047510;28;30760;-68
2022/12/20 05:09:35;;;;;;;6.05;3.92;;;;;;;7.99;100.00;100948.13;2047721;28;20178;-68
2022/12/20 05:10:39;;;;;;;5.85;3.85;;;;;;;7.98;100.00;100949.88;2048715;28;20047;-68
2022/12/20 05:11:41;;;;;;;6.43;4.20;;;;;;;7.95;100.00;100955.28;2039845;29;20043;-68
2022/12/20 05:12:43;;;;;;;5.95;4.22;;;;;;;7.94;100.00;100963.28;2047861;28;20829;-68
2022/12/20 05:13:52;;;;;;;6.57;4.45;;;;;;;7.93;100.00;100953.50;2047668;28;20043;-68